createdAt,value
2023-01-02T00:00:36.679Z,10.65
2023-01-02T00:03:10.466Z,9.20
2023-01-02T00:05:37.305Z,11.13
2023-01-02T00:08:10.330Z,8.68
2023-01-02T00:10:43.335Z,12.88
2023-01-02T00:13:09.942Z,16.50
2023-01-02T00:15:43.371Z,11.02
2023-01-02T00:18:10.016Z,13.85
2023-01-02T00:20:43.318Z,12.07
2023-01-02T00:23:10.580Z,12.00
2023-01-02T00:25:44.488Z,9.98
2023-01-02T00:28:11.116Z,10.80
2023-01-02T00:30:39.107Z,10.75
2023-01-02T00:33:13.414Z,7.97
2023-01-02T00:35:40.069Z,12.63
2023-01-02T00:38:07.182Z,11.50
2023-01-02T00:40:41.329Z,12.90
2023-01-02T00:43:07.963Z,14.73
2023-01-02T00:45:41.451Z,12.05
2023-01-02T00:48:08.102Z,9.90
2023-01-02T00:50:47.411Z,8.38
2023-01-02T00:53:14.124Z,10.03
2023-01-02T00:55:40.727Z,7.82
2023-01-02T00:58:14.344Z,8.98
2023-01-02T01:00:47.338Z,12.55
2023-01-02T01:03:14.239Z,12.75
2023-01-02T01:05:47.330Z,8.70
2023-01-02T01:08:14.116Z,9.27
2023-01-02T01:10:47.344Z,10.00
2023-01-02T01:13:14.035Z,11.40
2023-01-02T01:15:47.428Z,13.27
2023-01-02T01:18:14.066Z,10.02
2023-01-02T01:20:40.704Z,9.65
2023-01-02T01:23:14.355Z,9.43
2023-01-02T01:25:40.951Z,6.32
2023-01-02T01:28:14.357Z,9.05
2023-01-02T01:30:41.082Z,7.00
2023-01-02T01:33:14.454Z,12.38
2023-01-02T01:35:47.435Z,9.35
2023-01-02T01:38:14.060Z,11.10
2023-01-02T01:40:40.675Z,12.13
2023-01-02T01:43:21.340Z,9.63
2023-01-02T01:45:48.021Z,9.57
2023-01-02T01:48:24.410Z,11.32
2023-01-02T01:50:57.366Z,13.55
2023-01-02T01:53:31.440Z,9.07
2023-01-02T01:56:06.403Z,12.55
2023-01-02T01:58:44.402Z,7.45
2023-01-02T02:01:16.614Z,12.40
2023-01-02T02:03:53.334Z,11.48
2023-01-02T02:06:20.205Z,6.78
2023-01-02T02:09:11.414Z,9.80
2023-01-02T02:11:45.349Z,10.90
2023-01-02T02:14:18.334Z,10.20
2023-01-02T02:16:53.422Z,8.02
2023-01-02T02:20:03.548Z,6.75
2023-01-02T02:23:13.341Z,8.23
2023-01-02T02:26:02.386Z,13.40
2023-01-02T02:29:04.442Z,7.95
2023-01-02T02:32:15.275Z,12.18
2023-01-02T02:35:03.431Z,8.38
2023-01-02T02:37:41.084Z,8.80
2023-01-02T02:40:30.348Z,7.60
2023-01-02T02:43:27.071Z,12.63
2023-01-02T02:46:21.464Z,7.30
2023-01-02T02:49:27.321Z,13.43
2023-01-02T02:52:17.550Z,10.30
2023-01-02T02:57:16.287Z,7.40
2023-01-02T02:59:49.343Z,10.93
2023-01-02T03:02:24.552Z,10.82
2023-01-02T03:05:06.410Z,9.82
2023-01-02T03:07:41.540Z,8.13
2023-01-02T03:10:45.334Z,10.07
2023-01-02T03:13:29.144Z,10.02
2023-01-02T03:16:14.439Z,8.95
2023-01-02T03:18:53.267Z,7.28
2023-01-02T03:21:43.341Z,9.68
2023-01-02T03:24:20.384Z,10.75
2023-01-02T03:27:00.392Z,12.13
2023-01-02T03:29:41.343Z,8.02
2023-01-02T03:32:12.916Z,10.30
2023-01-02T03:34:48.395Z,6.00
2023-01-02T03:37:28.438Z,8.68
2023-01-02T03:40:38.310Z,8.80
2023-01-02T03:43:30.365Z,10.07
2023-01-02T03:46:16.355Z,8.50
2023-01-02T03:48:58.469Z,8.25
2023-01-02T03:51:32.404Z,7.88
2023-01-02T03:54:07.426Z,9.50
2023-01-02T03:56:56.843Z,10.82
2023-01-02T04:00:13.451Z,8.60
2023-01-02T04:03:12.422Z,11.43
2023-01-02T04:05:54.381Z,7.65
2023-01-02T04:08:33.640Z,9.15
2023-01-02T04:11:15.338Z,8.57
2023-01-02T04:13:47.346Z,10.50
2023-01-02T04:16:27.340Z,7.90
2023-01-02T04:19:03.253Z,7.82
2023-01-02T04:21:41.348Z,8.27
2023-01-02T04:24:23.353Z,6.90
2023-01-02T04:27:11.418Z,7.97
2023-01-02T04:29:45.359Z,12.73
2023-01-02T04:32:22.358Z,8.45
2023-01-02T04:34:58.383Z,8.18
2023-01-02T04:37:39.559Z,9.80
2023-01-02T04:40:38.335Z,7.35
2023-01-02T04:43:08.678Z,6.30
2023-01-02T04:45:42.424Z,6.38
2023-01-02T04:48:09.033Z,7.95
2023-01-02T04:50:49.354Z,7.57
2023-01-02T04:56:08.450Z,9.60
2023-01-02T04:58:35.175Z,6.75
2023-01-02T05:01:01.805Z,6.82
2023-01-02T05:03:35.520Z,8.38
2023-01-02T05:06:02.303Z,7.68
2023-01-02T05:08:36.424Z,8.93
2023-01-02T05:11:14.467Z,8.05
2023-01-02T05:13:41.681Z,8.23
2023-01-02T05:16:09.033Z,8.80
2023-01-02T05:18:42.360Z,11.30
2023-01-02T05:21:31.699Z,6.38
2023-01-02T05:24:08.437Z,8.30
2023-01-02T05:26:35.052Z,8.05
2023-01-02T05:29:01.794Z,7.15
2023-01-02T05:31:35.455Z,9.45
2023-01-02T05:34:02.136Z,9.48
2023-01-02T05:36:28.786Z,6.55
2023-01-02T05:39:02.373Z,6.63
2023-01-02T05:41:28.979Z,8.95
2023-01-02T05:44:02.354Z,7.57
2023-01-02T05:46:28.999Z,6.45
2023-01-02T05:49:02.354Z,18.15
2023-01-02T05:51:35.982Z,6.80
2023-01-02T05:54:09.342Z,5.93
2023-01-02T05:56:36.016Z,6.93
2023-01-02T05:59:12.419Z,7.55
2023-01-02T06:01:39.118Z,6.03
2023-01-02T06:04:07.205Z,7.70
2023-01-02T06:06:43.410Z,8.25
2023-01-02T06:09:13.810Z,7.18
2023-01-02T06:11:40.559Z,7.47
2023-01-02T06:14:15.430Z,9.07
2023-01-02T06:16:42.112Z,6.78
2023-01-02T06:19:08.733Z,6.60
2023-01-02T06:21:42.419Z,7.63
2023-01-02T06:24:09.324Z,6.90
2023-01-02T06:26:42.385Z,9.93
2023-01-02T06:29:09.520Z,5.32
2023-01-02T06:31:46.076Z,8.98
2023-01-02T06:34:17.697Z,7.20
2023-01-02T06:36:50.438Z,5.97
2023-01-02T06:39:17.043Z,5.43
2023-01-02T06:41:50.435Z,7.03
2023-01-02T06:44:23.425Z,8.05
2023-01-02T06:46:50.076Z,9.07
2023-01-02T06:49:16.655Z,5.88
2023-01-02T06:51:49.407Z,8.52
2023-01-02T06:54:22.447Z,6.07
2023-01-02T06:56:49.077Z,5.55
2023-01-02T06:59:22.477Z,4.53
2023-01-02T07:01:49.189Z,6.15
2023-01-02T07:04:16.920Z,6.63
2023-01-02T07:06:50.359Z,7.00
2023-01-02T07:09:16.981Z,7.55
2023-01-02T07:11:50.347Z,6.22
2023-01-02T07:14:16.998Z,5.30
2023-01-02T07:16:50.455Z,7.65
2023-01-02T07:19:17.359Z,7.00
2023-01-02T07:21:50.346Z,5.68
2023-01-02T07:24:16.968Z,6.90
2023-01-02T07:26:43.727Z,10.63
2023-01-02T07:29:17.415Z,4.80
2023-01-02T07:31:44.157Z,7.97
2023-01-02T07:34:10.861Z,5.50
2023-01-02T07:36:44.396Z,4.50
2023-01-02T07:39:11.007Z,6.63
2023-01-02T07:41:44.429Z,6.20
2023-01-02T07:44:17.414Z,6.13
2023-01-02T07:46:44.063Z,6.20
2023-01-02T07:49:13.850Z,7.38
2023-01-02T07:51:47.356Z,4.82
2023-01-02T07:54:20.430Z,5.00
2023-01-02T07:56:47.017Z,6.00
2023-01-02T07:59:20.418Z,5.38
2023-01-02T08:01:53.553Z,5.50
2023-01-02T08:04:27.466Z,5.88
2023-01-02T08:06:54.133Z,6.43
2023-01-02T08:09:21.066Z,5.63
2023-01-02T08:11:54.364Z,6.00
2023-01-02T08:14:23.615Z,8.80
2023-01-02T08:16:57.368Z,6.75
2023-01-02T08:19:23.992Z,9.38
2023-01-02T08:21:57.433Z,4.82
2023-01-02T08:24:24.117Z,7.43
2023-01-02T08:26:50.746Z,6.50
2023-01-02T08:29:24.360Z,6.03
2023-01-02T08:31:57.368Z,9.43
2023-01-02T08:34:24.032Z,5.95
2023-01-02T08:36:57.365Z,8.25
2023-01-02T08:39:23.998Z,6.18
2023-01-02T08:41:57.398Z,7.95
2023-01-02T08:44:24.575Z,8.70
2023-01-02T08:46:58.431Z,5.97
2023-01-02T08:49:31.386Z,6.35
2023-01-02T08:52:04.421Z,5.07
2023-01-02T08:54:38.351Z,6.07
2023-01-02T08:57:11.365Z,5.40
2023-01-02T08:59:37.964Z,5.60
2023-01-02T09:02:11.494Z,6.35
2023-01-02T09:04:38.165Z,5.53
2023-01-02T09:07:11.355Z,7.78
2023-01-02T09:09:38.054Z,7.35
2023-01-02T09:12:04.944Z,8.60
2023-01-02T09:14:38.451Z,5.93
2023-01-02T09:17:05.155Z,3.83
2023-01-02T09:19:31.781Z,5.47
2023-01-02T09:22:05.394Z,7.68
2023-01-02T09:24:38.372Z,9.90
2023-01-02T09:27:05.012Z,5.68
2023-01-02T09:29:38.415Z,6.88
2023-01-02T09:32:05.203Z,5.82
2023-01-02T09:34:38.352Z,6.03
2023-01-02T09:37:04.994Z,6.07
2023-01-02T09:39:38.371Z,11.45
2023-01-02T09:42:08.781Z,6.88
2023-01-02T09:44:50.431Z,8.10
2023-01-02T09:47:24.747Z,6.10
2023-01-02T09:50:08.443Z,5.00
2023-01-02T09:52:51.418Z,4.93
2023-01-02T09:55:35.150Z,7.65
2023-01-02T09:58:24.337Z,7.85
2023-01-02T10:00:58.442Z,4.63
2023-01-02T10:03:40.859Z,9.43
2023-01-02T10:06:21.352Z,5.47
2023-01-02T10:08:59.874Z,4.68
2023-01-02T10:11:54.361Z,6.93
2023-01-02T10:14:49.380Z,6.53
2023-01-02T10:17:24.472Z,5.30
2023-01-02T10:19:57.623Z,8.25
2023-01-02T10:22:42.382Z,4.95
2023-01-02T10:25:23.102Z,4.55
2023-01-02T10:28:02.456Z,9.23
2023-01-02T10:30:36.139Z,7.47
2023-01-02T10:33:16.358Z,7.70
2023-01-02T10:35:49.473Z,4.88
2023-01-02T10:38:25.363Z,5.22
2023-01-02T10:40:52.063Z,5.20
2023-01-02T10:43:26.385Z,5.22
2023-01-02T10:45:59.363Z,7.40
2023-01-02T10:48:36.373Z,7.00
2023-01-02T10:51:13.385Z,4.53
2023-01-02T10:54:07.449Z,8.18
2023-01-02T10:56:39.434Z,8.55
2023-01-02T10:59:33.414Z,6.97
2023-01-02T11:02:07.451Z,4.93
2023-01-02T11:04:42.802Z,6.32
2023-01-02T11:07:31.364Z,5.20
2023-01-02T11:09:58.064Z,7.82
2023-01-02T11:12:31.370Z,10.30
2023-01-02T11:15:12.526Z,5.22
2023-01-02T11:17:50.398Z,7.85
2023-01-02T11:20:24.503Z,6.10
2023-01-02T11:22:58.431Z,6.70
2023-01-02T11:25:28.922Z,7.53
2023-01-02T11:28:16.371Z,10.45
2023-01-02T11:30:49.494Z,10.23
2023-01-02T11:33:27.460Z,7.43
2023-01-02T11:36:19.469Z,9.48
2023-01-02T11:38:47.941Z,6.95
2023-01-02T11:42:18.367Z,6.47
2023-01-02T11:47:50.977Z,8.35
2023-01-02T11:50:50.364Z,6.15
2023-01-02T11:53:42.439Z,8.10
2023-01-02T11:56:40.382Z,8.07
2023-01-02T11:59:19.422Z,6.13
2023-01-02T12:02:19.524Z,6.95
2023-01-02T12:04:46.250Z,7.05
2023-01-02T12:07:38.592Z,6.85
2023-01-02T12:10:25.250Z,7.18
2023-01-02T12:13:16.379Z,7.38
2023-01-02T12:16:22.043Z,7.75
2023-01-02T12:19:23.450Z,6.35
2023-01-02T12:22:10.292Z,7.88
2023-01-02T12:24:52.388Z,9.43
2023-01-02T12:27:28.510Z,6.28
2023-01-02T12:30:18.657Z,7.90
2023-01-02T12:33:00.436Z,7.82
2023-01-02T12:36:00.506Z,8.05
2023-01-02T12:38:51.919Z,7.43
2023-01-02T12:42:05.358Z,6.57
2023-01-02T12:44:47.841Z,9.25
2023-01-02T12:47:36.485Z,8.25
2023-01-02T12:50:55.367Z,5.20
2023-01-02T12:54:19.105Z,7.57
2023-01-02T12:57:14.644Z,9.30
2023-01-02T13:00:21.431Z,7.65
2023-01-02T13:03:35.444Z,9.90
2023-01-02T13:06:44.968Z,9.48
2023-01-02T13:09:37.735Z,8.25
2023-01-02T13:12:20.442Z,8.63
2023-01-02T13:15:02.380Z,7.85
2023-01-02T13:17:50.438Z,8.35
2023-01-02T13:20:19.818Z,6.82
2023-01-02T13:23:10.368Z,9.87
2023-01-02T13:25:44.780Z,6.70
2023-01-02T13:28:28.621Z,4.75
2023-01-02T13:31:44.191Z,9.20
2023-01-02T13:34:01.415Z,5.20
2023-01-02T13:36:36.404Z,8.15
2023-01-02T13:39:29.448Z,6.07
2023-01-02T13:42:26.598Z,7.50
2023-01-02T13:45:03.442Z,7.55
2023-01-02T13:47:39.422Z,8.90
2023-01-02T13:50:31.447Z,10.68
2023-01-02T13:53:17.603Z,6.38
2023-01-02T13:56:11.460Z,9.88
2023-01-02T13:58:52.936Z,6.88
2023-01-02T14:01:29.594Z,7.63
2023-01-02T14:07:55.839Z,9.40
2023-01-02T14:10:31.572Z,10.85
2023-01-02T14:13:12.483Z,7.18
2023-01-02T14:19:33.393Z,8.65
2023-01-02T14:22:06.621Z,6.55
2023-01-02T14:24:35.589Z,7.90
2023-01-02T14:27:05.898Z,7.68
2023-01-02T14:29:52.731Z,7.43
2023-01-02T14:32:40.422Z,7.93
2023-01-02T14:35:19.385Z,3.95
2023-01-02T14:37:58.423Z,8.40
2023-01-02T14:40:25.120Z,8.95
2023-01-02T14:43:34.457Z,7.22
2023-01-02T14:46:16.254Z,9.75
2023-01-02T14:49:24.922Z,6.47
2023-01-02T14:52:20.345Z,6.72
2023-01-02T14:55:19.466Z,9.70
2023-01-02T14:57:48.988Z,10.13
2023-01-02T15:00:31.370Z,8.30
2023-01-02T15:03:29.649Z,6.25
2023-01-02T15:06:05.323Z,7.60
2023-01-02T15:08:46.460Z,6.28
2023-01-02T15:11:41.290Z,12.45
2023-01-02T15:14:23.976Z,11.00
2023-01-02T15:17:02.439Z,6.32
2023-01-02T15:19:32.383Z,19.15
2023-01-02T15:22:14.445Z,21.30
2023-01-02T15:24:47.310Z,19.58
2023-01-02T15:27:35.396Z,12.95
2023-01-02T15:30:18.128Z,21.90
2023-01-02T15:32:55.364Z,22.33
2023-01-02T15:35:28.246Z,10.00
2023-01-02T15:38:02.365Z,7.10
2023-01-02T15:40:33.091Z,8.07
2023-01-02T15:43:31.380Z,11.68
2023-01-02T15:45:58.794Z,9.10
2023-01-02T15:48:36.401Z,9.70
2023-01-02T15:51:40.016Z,13.18
2023-01-02T15:54:26.454Z,8.93
2023-01-02T15:56:53.138Z,11.15
2023-01-02T15:59:40.406Z,8.73
2023-01-02T16:02:18.945Z,7.40
2023-01-02T16:04:52.493Z,6.05
2023-01-02T16:07:26.618Z,8.00
2023-01-02T16:10:02.516Z,14.95
2023-01-02T16:12:29.321Z,8.25
2023-01-02T16:15:05.373Z,11.00
2023-01-02T16:17:37.968Z,6.00
2023-01-02T16:20:23.465Z,7.72
2023-01-02T16:23:01.370Z,5.78
2023-01-02T16:25:36.447Z,3.50
2023-01-02T16:28:34.895Z,3.92
2023-01-02T16:31:17.622Z,5.28
2023-01-02T16:33:55.391Z,5.25
2023-01-02T16:36:33.399Z,4.68
2023-01-02T16:39:02.292Z,5.00
2023-01-02T16:41:59.153Z,5.07
2023-01-02T16:44:25.736Z,4.05
2023-01-02T16:46:59.536Z,2.97
2023-01-02T16:49:26.163Z,2.28
2023-01-02T16:52:00.476Z,2.78
2023-01-02T16:54:33.393Z,3.17
2023-01-02T16:57:06.438Z,3.78
2023-01-02T16:59:39.457Z,2.03
2023-01-02T17:02:06.691Z,1.55
2023-01-02T17:04:40.389Z,3.30
2023-01-02T17:07:18.538Z,2.55
2023-01-02T17:09:55.420Z,1.52
2023-01-02T17:12:29.462Z,2.03
2023-01-02T17:15:02.402Z,1.55
2023-01-02T17:17:29.051Z,2.60
2023-01-02T17:20:02.409Z,2.30
2023-01-02T17:22:35.394Z,3.08
2023-01-02T17:25:03.621Z,2.75
2023-01-02T17:27:37.449Z,1.85
2023-01-02T17:30:04.951Z,3.42
2023-01-02T17:32:32.020Z,1.55
2023-01-02T17:35:05.378Z,2.05
2023-01-02T17:37:38.406Z,2.70
2023-01-02T17:40:13.386Z,2.38
2023-01-02T17:42:46.412Z,1.65
2023-01-02T17:45:20.444Z,2.22
2023-01-02T17:50:40.424Z,2.53
2023-01-02T17:53:20.448Z,4.90
2023-01-02T17:56:20.347Z,0.98
2023-01-02T17:58:48.045Z,3.42
2023-01-02T18:01:23.523Z,1.30
2023-01-02T18:03:50.658Z,1.00
2023-01-02T18:06:24.398Z,0.93
2023-01-02T18:08:54.448Z,0.95
2023-01-02T18:11:28.426Z,1.00
2023-01-02T18:13:56.834Z,0.85
2023-01-02T18:16:51.539Z,0.82
2023-01-02T18:19:23.298Z,1.08
2023-01-02T18:21:57.459Z,0.90
2023-01-02T18:24:26.649Z,2.67
2023-01-02T18:27:08.377Z,0.80
2023-01-02T18:29:41.394Z,3.45
2023-01-02T18:32:17.879Z,1.08
2023-01-02T18:34:57.502Z,1.90
2023-01-02T18:37:29.579Z,1.55
2023-01-02T18:40:03.391Z,1.02
2023-01-02T18:42:33.507Z,1.40
2023-01-02T18:47:37.277Z,1.30
2023-01-02T18:50:23.742Z,1.25
2023-01-02T18:53:11.353Z,2.80
2023-01-02T18:55:44.441Z,1.13
2023-01-02T18:58:42.270Z,1.33
2023-01-02T19:01:37.611Z,1.48
2023-01-02T19:04:28.217Z,1.02
2023-01-02T19:06:59.569Z,1.52
2023-01-02T19:09:38.394Z,1.13
2023-01-02T19:12:39.385Z,1.48
2023-01-02T19:15:47.017Z,2.72
2023-01-02T19:18:19.709Z,2.33
2023-01-02T19:21:00.388Z,1.17
2023-01-02T19:23:35.377Z,1.77
2023-01-02T19:26:43.424Z,1.38
2023-01-02T19:29:09.972Z,0.82
2023-01-02T19:31:58.373Z,1.83
2023-01-02T19:34:46.519Z,1.98
2023-01-02T19:37:19.469Z,1.45
2023-01-02T19:39:59.389Z,1.25
2023-01-02T19:42:28.441Z,1.27
2023-01-02T19:45:07.454Z,1.05
2023-01-02T19:47:42.482Z,1.33
2023-01-02T19:50:19.572Z,3.22
2023-01-02T19:52:53.288Z,2.08
2023-01-02T19:55:26.427Z,1.10
2023-01-02T19:58:00.441Z,2.35
2023-01-02T20:00:27.143Z,1.40
2023-01-02T20:02:53.840Z,3.13
2023-01-02T20:05:28.580Z,1.80
2023-01-02T20:08:04.762Z,1.30
2023-01-02T20:10:31.404Z,1.33
2023-01-02T20:12:58.118Z,1.65
2023-01-02T20:15:33.602Z,1.38
2023-01-02T20:18:09.475Z,1.58
2023-01-02T20:20:36.184Z,1.23
2023-01-02T20:23:02.835Z,1.45
2023-01-02T20:25:36.457Z,2.40
2023-01-02T20:28:04.132Z,1.70
2023-01-02T20:30:37.381Z,1.98
2023-01-02T20:33:04.049Z,1.00
2023-01-02T20:35:37.426Z,1.13
2023-01-02T20:38:04.058Z,1.60
2023-01-02T20:40:37.486Z,1.25
2023-01-02T20:43:04.086Z,2.40
2023-01-02T20:45:30.670Z,1.75
2023-01-02T20:48:03.455Z,1.65
2023-01-02T20:50:30.063Z,1.13
2023-01-02T20:53:10.397Z,1.67
2023-01-02T20:55:45.529Z,1.27
2023-01-02T20:58:18.476Z,1.40
2023-01-02T21:00:45.097Z,0.95
2023-01-02T21:03:18.559Z,2.53
2023-01-02T21:05:51.480Z,1.50
2023-01-02T21:08:24.370Z,4.13
2023-01-02T21:10:51.016Z,1.35
2023-01-02T21:13:17.629Z,0.93
2023-01-02T21:15:53.479Z,2.10
2023-01-02T21:18:25.847Z,1.40
2023-01-02T21:21:01.446Z,1.92
2023-01-02T21:23:36.436Z,0.82
2023-01-02T21:26:11.487Z,3.75
2023-01-02T21:28:38.934Z,2.78
2023-01-02T21:31:06.333Z,2.20
2023-01-02T21:33:40.409Z,1.77
2023-01-02T21:36:14.448Z,2.55
2023-01-02T21:38:48.445Z,0.98
2023-01-02T21:41:34.009Z,1.35
2023-01-02T21:44:07.435Z,1.40
2023-01-02T21:46:34.147Z,2.55
2023-01-02T21:49:00.854Z,1.50
2023-01-02T21:51:34.400Z,3.35
2023-01-02T21:54:14.386Z,1.52
2023-01-02T21:56:47.437Z,1.52
2023-01-02T21:59:20.438Z,3.45
2023-01-02T22:01:47.100Z,1.88
2023-01-02T22:04:20.469Z,2.33
2023-01-02T22:09:39.995Z,1.50
2023-01-02T22:12:13.454Z,3.78
2023-01-02T22:14:40.076Z,2.30
2023-01-02T22:17:16.398Z,2.97
2023-01-02T22:19:43.764Z,2.97
2023-01-02T22:22:17.424Z,3.85
2023-01-02T22:24:45.415Z,2.15
2023-01-02T22:27:21.383Z,4.93
2023-01-02T22:30:20.525Z,4.47
2023-01-02T22:32:44.499Z,2.28
2023-01-02T22:35:11.371Z,3.75
2023-01-02T22:37:38.012Z,3.33
2023-01-02T22:40:11.392Z,3.65
2023-01-02T22:43:05.385Z,4.28
2023-01-02T22:45:45.925Z,3.58
2023-01-02T22:48:29.362Z,2.00
2023-01-02T22:50:58.660Z,5.28
2023-01-02T22:53:42.451Z,4.00
2023-01-02T22:56:15.110Z,4.28
2023-01-02T22:58:41.755Z,4.88
2023-01-02T23:01:29.447Z,3.33
2023-01-02T23:04:02.528Z,2.28
2023-01-02T23:06:29.404Z,2.63
2023-01-02T23:08:56.345Z,4.03
2023-01-02T23:11:29.384Z,3.38
2023-01-02T23:13:56.894Z,3.50
2023-01-02T23:16:49.456Z,2.63
2023-01-02T23:19:23.371Z,4.10
2023-01-02T23:21:55.199Z,6.35
2023-01-02T23:24:33.448Z,5.32
2023-01-02T23:27:04.126Z,6.82
2023-01-02T23:29:37.378Z,5.20
2023-01-02T23:32:11.440Z,3.00
2023-01-02T23:34:38.299Z,4.68
2023-01-02T23:37:12.490Z,4.00
2023-01-02T23:39:39.679Z,6.05
2023-01-02T23:42:06.607Z,5.45
2023-01-02T23:44:39.441Z,4.43
2023-01-02T23:47:15.850Z,5.45
2023-01-02T23:49:45.626Z,4.95
2023-01-02T23:52:25.459Z,6.30
2023-01-02T23:54:59.331Z,4.70
2023-01-02T23:57:32.421Z,3.45
2023-01-02T23:59:59.172Z,4.15
